sensor_id;sensor_type;location;lat;lon;timestamp;pressure;altitude;pressure_sealevel;temperature;humidity
27144;BME280;14672;50.250;8.312;2022-07-29T00:00:56;98741.84;;;22.63;57.00
27144;BME280;14672;50.250;8.312;2022-07-29T00:03:22;98721.47;;;22.50;58.08
27144;BME280;14672;50.250;8.312;2022-07-29T00:05:48;98705.50;;;22.43;58.46
27144;BME280;14672;50.250;8.312;2022-07-29T00:08:14;98733.59;;;22.48;58.35
27144;BME280;14672;50.250;8.312;2022-07-29T00:10:43;98746.38;;;22.34;58.75
27144;BME280;14672;50.250;8.312;2022-07-29T00:13:09;98771.84;;;22.17;59.37
27144;BME280;14672;50.250;8.312;2022-07-29T00:15:35;98756.25;;;21.96;60.11
27144;BME280;14672;50.250;8.312;2022-07-29T00:18:01;98717.50;;;22.05;60.23
27144;BME280;14672;50.250;8.312;2022-07-29T00:20:27;98701.22;;;22.01;60.34
27144;BME280;14672;50.250;8.312;2022-07-29T00:22:53;98702.47;;;22.06;60.43
27144;BME280;14672;50.250;8.312;2022-07-29T00:25:19;98691.38;;;22.10;60.29
27144;BME280;14672;50.250;8.312;2022-07-29T00:27:45;98715.75;;;21.96;60.88
27144;BME280;14672;50.250;8.312;2022-07-29T00:30:14;98702.88;;;21.97;61.16
27144;BME280;14672;50.250;8.312;2022-07-29T00:32:40;98703.81;;;22.05;61.15
27144;BME280;14672;50.250;8.312;2022-07-29T00:35:06;98682.31;;;22.00;61.17
27144;BME280;14672;50.250;8.312;2022-07-29T00:37:51;98685.50;;;21.97;61.92
27144;BME280;14672;50.250;8.312;2022-07-29T00:40:17;98692.34;;;21.94;61.84
27144;BME280;14672;50.250;8.312;2022-07-29T00:42:49;98690.03;;;21.92;61.49
27144;BME280;14672;50.250;8.312;2022-07-29T00:45:16;98702.00;;;22.02;60.98
27144;BME280;14672;50.250;8.312;2022-07-29T00:47:43;98721.72;;;22.04;61.21
27144;BME280;14672;50.250;8.312;2022-07-29T00:50:12;98710.63;;;21.78;62.33
27144;BME280;14672;50.250;8.312;2022-07-29T00:52:40;98711.59;;;21.86;62.34
27144;BME280;14672;50.250;8.312;2022-07-29T00:55:11;98708.22;;;21.82;62.59
27144;BME280;14672;50.250;8.312;2022-07-29T00:57:37;98710.34;;;21.81;63.28
27144;BME280;14672;50.250;8.312;2022-07-29T01:00:06;98716.66;;;21.80;63.30
27144;BME280;14672;50.250;8.312;2022-07-29T01:02:32;98714.59;;;21.75;63.88
27144;BME280;14672;50.250;8.312;2022-07-29T01:04:58;98709.50;;;21.57;65.06
27144;BME280;14672;50.250;8.312;2022-07-29T01:07:26;98715.00;;;21.60;64.40
27144;BME280;14672;50.250;8.312;2022-07-29T01:09:53;98707.41;;;21.57;64.88
27144;BME280;14672;50.250;8.312;2022-07-29T01:12:25;98699.25;;;21.55;65.57
27144;BME280;14672;50.250;8.312;2022-07-29T01:14:53;98703.25;;;21.52;65.45
27144;BME280;14672;50.250;8.312;2022-07-29T01:20:22;98688.78;;;21.52;66.03
27144;BME280;14672;50.250;8.312;2022-07-29T01:26:07;98680.63;;;21.51;66.28
27144;BME280;14672;50.250;8.312;2022-07-29T01:31:35;98686.97;;;21.49;66.15
27144;BME280;14672;50.250;8.312;2022-07-29T01:34:08;98688.78;;;21.52;66.02
27144;BME280;14672;50.250;8.312;2022-07-29T01:36:43;98685.72;;;21.39;66.92
27144;BME280;14672;50.250;8.312;2022-07-29T01:39:30;98690.19;;;21.40;67.31
27144;BME280;14672;50.250;8.312;2022-07-29T01:44:48;98679.78;;;21.26;67.36
27144;BME280;14672;50.250;8.312;2022-07-29T01:47:21;98680.56;;;21.27;67.83
27144;BME280;14672;50.250;8.312;2022-07-29T01:49:52;98674.84;;;21.21;67.94
27144;BME280;14672;50.250;8.312;2022-07-29T01:52:28;98678.63;;;20.99;68.51
27144;BME280;14672;50.250;8.312;2022-07-29T01:54:59;98673.41;;;20.98;69.05
27144;BME280;14672;50.250;8.312;2022-07-29T01:57:30;98664.47;;;20.96;69.29
27144;BME280;14672;50.250;8.312;2022-07-29T01:59:59;98670.75;;;21.00;68.58
27144;BME280;14672;50.250;8.312;2022-07-29T02:02:28;98659.50;;;20.96;68.47
27144;BME280;14672;50.250;8.312;2022-07-29T02:04:56;98653.22;;;20.92;68.70
27144;BME280;14672;50.250;8.312;2022-07-29T02:07:25;98647.94;;;20.96;68.30
27144;BME280;14672;50.250;8.312;2022-07-29T02:09:54;98654.25;;;20.95;68.42
27144;BME280;14672;50.250;8.312;2022-07-29T02:12:22;98648.53;;;20.89;68.27
27144;BME280;14672;50.250;8.312;2022-07-29T02:14:53;98653.31;;;20.81;68.48
27144;BME280;14672;50.250;8.312;2022-07-29T02:17:29;98647.31;;;20.74;68.81
27144;BME280;14672;50.250;8.312;2022-07-29T02:20:02;98646.25;;;20.77;68.24
27144;BME280;14672;50.250;8.312;2022-07-29T02:22:31;98650.53;;;20.59;68.79
27144;BME280;14672;50.250;8.312;2022-07-29T02:25:00;98641.31;;;20.66;68.84
27144;BME280;14672;50.250;8.312;2022-07-29T02:27:28;98646.59;;;20.62;68.81
27144;BME280;14672;50.250;8.312;2022-07-29T02:29:56;98648.34;;;20.71;68.36
27144;BME280;14672;50.250;8.312;2022-07-29T02:32:25;98646.84;;;20.58;68.86
27144;BME280;14672;50.250;8.312;2022-07-29T02:34:54;98647.34;;;20.62;69.11
27144;BME280;14672;50.250;8.312;2022-07-29T02:37:21;98649.22;;;20.60;68.96
27144;BME280;14672;50.250;8.312;2022-07-29T02:39:48;98653.97;;;20.57;68.83
27144;BME280;14672;50.250;8.312;2022-07-29T02:42:18;98652.91;;;20.55;68.92
27144;BME280;14672;50.250;8.312;2022-07-29T02:44:44;98652.13;;;20.54;68.71
27144;BME280;14672;50.250;8.312;2022-07-29T02:47:18;98651.38;;;20.54;68.68
27144;BME280;14672;50.250;8.312;2022-07-29T02:50:02;98641.66;;;20.51;68.81
27144;BME280;14672;50.250;8.312;2022-07-29T02:52:54;98646.75;;;20.29;69.14
27144;BME280;14672;50.250;8.312;2022-07-29T02:58:54;98647.72;;;20.42;68.35
27144;BME280;14672;50.250;8.312;2022-07-29T03:01:24;98651.38;;;20.48;67.59
27144;BME280;14672;50.250;8.312;2022-07-29T03:03:53;98643.22;;;20.52;66.08
27144;BME280;14672;50.250;8.312;2022-07-29T03:06:23;98634.25;;;20.61;66.85
27144;BME280;14672;50.250;8.312;2022-07-29T03:08:51;98615.66;;;20.57;68.07
27144;BME280;14672;50.250;8.312;2022-07-29T03:11:18;98615.59;;;20.62;68.53
27144;BME280;14672;50.250;8.312;2022-07-29T03:13:45;98611.72;;;20.54;68.94
27144;BME280;14672;50.250;8.312;2022-07-29T03:16:11;98619.03;;;20.61;68.00
27144;BME280;14672;50.250;8.312;2022-07-29T03:18:39;98636.16;;;20.53;66.79
27144;BME280;14672;50.250;8.312;2022-07-29T03:21:05;98638.31;;;20.42;67.12
27144;BME280;14672;50.250;8.312;2022-07-29T03:23:31;98621.44;;;20.57;66.50
27144;BME280;14672;50.250;8.312;2022-07-29T03:25:56;98606.22;;;20.56;67.29
27144;BME280;14672;50.250;8.312;2022-07-29T03:28:23;98600.34;;;20.68;66.99
27144;BME280;14672;50.250;8.312;2022-07-29T03:30:49;98603.59;;;20.53;68.32
27144;BME280;14672;50.250;8.312;2022-07-29T03:33:16;98596.53;;;20.48;68.94
27144;BME280;14672;50.250;8.312;2022-07-29T03:35:42;98610.72;;;20.46;68.20
27144;BME280;14672;50.250;8.312;2022-07-29T03:38:07;98599.16;;;20.46;67.84
27144;BME280;14672;50.250;8.312;2022-07-29T03:40:56;98601.00;;;20.49;67.24
27144;BME280;14672;50.250;8.312;2022-07-29T03:43:25;98612.56;;;20.49;67.39
27144;BME280;14672;50.250;8.312;2022-07-29T03:45:55;98610.72;;;20.46;67.33
27144;BME280;14672;50.250;8.312;2022-07-29T03:48:24;98610.72;;;20.46;67.62
27144;BME280;14672;50.250;8.312;2022-07-29T03:50:50;98611.78;;;20.43;67.54
27144;BME280;14672;50.250;8.312;2022-07-29T03:53:17;98605.00;;;20.35;67.73
27144;BME280;14672;50.250;8.312;2022-07-29T03:55:47;98604.94;;;20.46;66.33
27144;BME280;14672;50.250;8.312;2022-07-29T03:58:14;98605.19;;;20.48;66.56
27144;BME280;14672;50.250;8.312;2022-07-29T04:00:42;98605.50;;;20.39;66.36
27144;BME280;14672;50.250;8.312;2022-07-29T04:03:09;98608.63;;;20.47;66.06
27144;BME280;14672;50.250;8.312;2022-07-29T04:05:36;98620.44;;;20.43;66.64
27144;BME280;14672;50.250;8.312;2022-07-29T04:08:01;98620.44;;;20.43;66.49
27144;BME280;14672;50.250;8.312;2022-07-29T04:10:27;98616.06;;;20.26;67.61
27144;BME280;14672;50.250;8.312;2022-07-29T04:12:54;98621.88;;;20.09;68.43
27144;BME280;14672;50.250;8.312;2022-07-29T04:15:20;98615.00;;;20.23;67.83
27144;BME280;14672;50.250;8.312;2022-07-29T04:17:46;98619.97;;;20.23;68.16
27144;BME280;14672;50.250;8.312;2022-07-29T04:20:11;98628.91;;;20.19;68.45
27144;BME280;14672;50.250;8.312;2022-07-29T04:22:40;98624.47;;;20.18;67.99
27144;BME280;14672;50.250;8.312;2022-07-29T04:25:06;98630.78;;;20.11;67.98
27144;BME280;14672;50.250;8.312;2022-07-29T04:27:32;98623.22;;;20.02;68.13
27144;BME280;14672;50.250;8.312;2022-07-29T04:29:58;98631.34;;;20.04;68.09
27144;BME280;14672;50.250;8.312;2022-07-29T04:32:25;98644.72;;;19.96;68.75
27144;BME280;14672;50.250;8.312;2022-07-29T04:34:51;98641.84;;;19.96;68.36
27144;BME280;14672;50.250;8.312;2022-07-29T04:37:17;98646.34;;;19.86;68.39
27144;BME280;14672;50.250;8.312;2022-07-29T04:39:43;98640.34;;;19.73;69.45
27144;BME280;14672;50.250;8.312;2022-07-29T04:42:08;98642.16;;;19.76;69.25
27144;BME280;14672;50.250;8.312;2022-07-29T04:44:34;98645.03;;;19.81;68.83
27144;BME280;14672;50.250;8.312;2022-07-29T04:47:00;98644.53;;;19.77;69.31
27144;BME280;14672;50.250;8.312;2022-07-29T04:49:26;98646.63;;;19.77;68.88
27144;BME280;14672;50.250;8.312;2022-07-29T04:51:53;98654.75;;;19.78;68.75
27144;BME280;14672;50.250;8.312;2022-07-29T04:54:19;98657.63;;;19.73;69.18
27144;BME280;14672;50.250;8.312;2022-07-29T04:56:44;98658.69;;;19.69;69.26
27144;BME280;14672;50.250;8.312;2022-07-29T04:59:12;98652.41;;;19.65;69.29
27144;BME280;14672;50.250;8.312;2022-07-29T05:01:37;98657.13;;;19.68;69.73
27144;BME280;14672;50.250;8.312;2022-07-29T05:04:03;98658.41;;;19.67;70.01
27144;BME280;14672;50.250;8.312;2022-07-29T05:06:29;98663.41;;;19.67;69.80
27144;BME280;14672;50.250;8.312;2022-07-29T05:08:55;98669.97;;;19.56;71.01
27144;BME280;14672;50.250;8.312;2022-07-29T05:11:21;98670.50;;;19.66;70.47
27144;BME280;14672;50.250;8.312;2022-07-29T05:13:47;98666.56;;;19.63;70.66
27144;BME280;14672;50.250;8.312;2022-07-29T05:16:13;98663.16;;;19.65;70.48
27144;BME280;14672;50.250;8.312;2022-07-29T05:18:39;98658.91;;;19.83;70.08
27144;BME280;14672;50.250;8.312;2022-07-29T05:21:05;98669.13;;;19.84;70.46
27144;BME280;14672;50.250;8.312;2022-07-29T05:23:31;98667.56;;;19.94;70.13
27144;BME280;14672;50.250;8.312;2022-07-29T05:25:56;98672.78;;;20.01;70.65
27144;BME280;14672;50.250;8.312;2022-07-29T05:28:22;98668.06;;;19.98;70.18
27144;BME280;14672;50.250;8.312;2022-07-29T05:30:48;98669.09;;;20.06;69.62
27144;BME280;14672;50.250;8.312;2022-07-29T05:33:14;98669.06;;;20.11;69.58
27144;BME280;14672;50.250;8.312;2022-07-29T05:35:41;98664.34;;;20.14;69.33
27144;BME280;14672;50.250;8.312;2022-07-29T05:38:07;98672.69;;;20.23;69.63
27144;BME280;14672;50.250;8.312;2022-07-29T05:40:33;98683.19;;;20.26;70.08
27144;BME280;14672;50.250;8.312;2022-07-29T05:42:59;98681.38;;;20.34;69.18
27144;BME280;14672;50.250;8.312;2022-07-29T05:45:25;98669.81;;;20.34;69.29
27144;BME280;14672;50.250;8.312;2022-07-29T05:47:51;98684.97;;;20.46;69.34
27144;BME280;14672;50.250;8.312;2022-07-29T05:50:17;98667.09;;;20.53;69.46
27144;BME280;14672;50.250;8.312;2022-07-29T05:52:43;98675.72;;;20.58;69.72
27144;BME280;14672;50.250;8.312;2022-07-29T05:55:12;98663.84;;;20.73;69.15
27144;BME280;14672;50.250;8.312;2022-07-29T05:57:38;98669.84;;;20.81;69.35
27144;BME280;14672;50.250;8.312;2022-07-29T06:00:04;98655.63;;;20.83;69.53
27144;BME280;14672;50.250;8.312;2022-07-29T06:02:30;98665.63;;;20.82;70.00
27144;BME280;14672;50.250;8.312;2022-07-29T06:07:25;98673.47;;;20.87;69.80
27144;BME280;14672;50.250;8.312;2022-07-29T06:09:51;98675.31;;;20.90;69.65
27144;BME280;14672;50.250;8.312;2022-07-29T06:12:17;98671.34;;;20.93;70.19
27144;BME280;14672;50.250;8.312;2022-07-29T06:14:43;98655.59;;;20.94;70.57
27144;BME280;14672;50.250;8.312;2022-07-29T06:17:09;98664.19;;;20.99;69.96
27144;BME280;14672;50.250;8.312;2022-07-29T06:19:37;98663.88;;;21.08;69.40
27144;BME280;14672;50.250;8.312;2022-07-29T06:22:03;98678.34;;;21.03;69.67
27144;BME280;14672;50.250;8.312;2022-07-29T06:24:29;98671.47;;;21.17;68.60
27144;BME280;14672;50.250;8.312;2022-07-29T06:26:55;98677.16;;;21.28;67.92
27144;BME280;14672;50.250;8.312;2022-07-29T06:29:21;98681.03;;;21.36;67.54
27144;BME280;14672;50.250;8.312;2022-07-29T06:31:47;98695.50;;;21.31;69.17
27144;BME280;14672;50.250;8.312;2022-07-29T06:34:13;98686.81;;;21.36;68.58
27144;BME280;14672;50.250;8.312;2022-07-29T06:36:39;98684.66;;;21.42;69.55
27144;BME280;14672;50.250;8.312;2022-07-29T06:39:06;98684.66;;;21.42;69.43
27144;BME280;14672;50.250;8.312;2022-07-29T06:41:33;98687.50;;;21.48;69.09
27144;BME280;14672;50.250;8.312;2022-07-29T06:43:59;98687.47;;;21.53;68.81
27144;BME280;14672;50.250;8.312;2022-07-29T06:46:25;98689.28;;;21.57;68.63
27144;BME280;14672;50.250;8.312;2022-07-29T06:48:51;98693.44;;;21.61;69.19
27144;BME280;14672;50.250;8.312;2022-07-29T06:51:17;98696.03;;;21.65;69.46
27144;BME280;14672;50.250;8.312;2022-07-29T06:53:43;98695.94;;;21.76;69.04
27144;BME280;14672;50.250;8.312;2022-07-29T06:56:09;98704.75;;;21.89;68.08
27144;BME280;14672;50.250;8.312;2022-07-29T06:58:36;98704.50;;;21.87;68.51
27144;BME280;14672;50.250;8.312;2022-07-29T07:01:04;98702.88;;;21.97;67.80
27144;BME280;14672;50.250;8.312;2022-07-29T07:03:31;98699.97;;;21.97;68.86
27144;BME280;14672;50.250;8.312;2022-07-29T07:05:58;98698.03;;;22.05;68.64
27144;BME280;14672;50.250;8.312;2022-07-29T07:08:23;98700.56;;;22.14;67.42
27144;BME280;14672;50.250;8.312;2022-07-29T07:10:52;98708.88;;;22.23;66.38
27144;BME280;14672;50.250;8.312;2022-07-29T07:13:19;98710.16;;;22.28;66.58
27144;BME280;14672;50.250;8.312;2022-07-29T07:15:46;98706.34;;;22.38;68.00
27144;BME280;14672;50.250;8.312;2022-07-29T07:18:14;98713.03;;;22.52;66.78
27144;BME280;14672;50.250;8.312;2022-07-29T07:20:41;98703.97;;;22.61;65.03
27144;BME280;14672;50.250;8.312;2022-07-29T07:23:07;98709.69;;;22.67;64.73
27144;BME280;14672;50.250;8.312;2022-07-29T07:25:34;98712.69;;;22.80;63.91
27144;BME280;14672;50.250;8.312;2022-07-29T07:28:00;98713.22;;;22.78;62.48
27144;BME280;14672;50.250;8.312;2022-07-29T07:30:26;98720.53;;;22.85;62.12
27144;BME280;14672;50.250;8.312;2022-07-29T07:32:53;98714.66;;;22.90;62.01
27144;BME280;14672;50.250;8.312;2022-07-29T07:35:19;98711.44;;;22.94;61.92
27144;BME280;14672;50.250;8.312;2022-07-29T07:37:45;98714.75;;;23.04;61.12
27144;BME280;14672;50.250;8.312;2022-07-29T07:40:11;98700.47;;;23.06;59.14
27144;BME280;14672;50.250;8.312;2022-07-29T07:42:39;98690.38;;;23.12;60.15
27144;BME280;14672;50.250;8.312;2022-07-29T07:45:05;98696.53;;;23.22;60.07
27144;BME280;14672;50.250;8.312;2022-07-29T07:47:32;98695.69;;;23.27;59.83
27144;BME280;14672;50.250;8.312;2022-07-29T07:49:58;98699.59;;;23.29;59.46
27144;BME280;14672;50.250;8.312;2022-07-29T07:52:24;98699.84;;;23.31;59.73
27144;BME280;14672;50.250;8.312;2022-07-29T07:54:50;98693.94;;;23.37;59.88
27144;BME280;14672;50.250;8.312;2022-07-29T07:57:17;98695.19;;;23.41;60.05
27144;BME280;14672;50.250;8.312;2022-07-29T07:59:43;98706.19;;;23.49;59.67
27144;BME280;14672;50.250;8.312;2022-07-29T08:02:09;98703.09;;;23.60;60.32
27144;BME280;14672;50.250;8.312;2022-07-29T08:04:35;98697.97;;;23.66;59.39
27144;BME280;14672;50.250;8.312;2022-07-29T08:07:02;98700.22;;;23.73;59.49
27144;BME280;14672;50.250;8.312;2022-07-29T08:09:29;98702.38;;;23.85;58.77
27144;BME280;14672;50.250;8.312;2022-07-29T08:11:57;98694.44;;;23.86;58.67
27144;BME280;14672;50.250;8.312;2022-07-29T08:14:23;98690.88;;;23.93;57.53
27144;BME280;14672;50.250;8.312;2022-07-29T08:16:49;98691.59;;;23.99;56.66
27144;BME280;14672;50.250;8.312;2022-07-29T08:19:17;98696.50;;;24.04;56.02
27144;BME280;14672;50.250;8.312;2022-07-29T08:21:43;98690.25;;;24.13;54.71
27144;BME280;14672;50.250;8.312;2022-07-29T08:24:09;98692.53;;;24.20;55.82
27144;BME280;14672;50.250;8.312;2022-07-29T08:26:53;98687.59;;;24.28;55.33
27144;BME280;14672;50.250;8.312;2022-07-29T08:29:19;98687.94;;;24.38;54.63
27144;BME280;14672;50.250;8.312;2022-07-29T08:31:45;98695.00;;;24.43;54.12
27144;BME280;14672;50.250;8.312;2022-07-29T08:34:11;98687.84;;;24.44;53.55
27144;BME280;14672;50.250;8.312;2022-07-29T08:36:37;98692.97;;;24.51;53.66
27144;BME280;14672;50.250;8.312;2022-07-29T08:39:04;98683.38;;;24.56;54.31
27144;BME280;14672;50.250;8.312;2022-07-29T08:41:30;98695.44;;;24.60;53.17
27144;BME280;14672;50.250;8.312;2022-07-29T08:43:57;98693.09;;;24.58;52.07
27144;BME280;14672;50.250;8.312;2022-07-29T08:46:23;98703.66;;;24.69;52.80
27144;BME280;14672;50.250;8.312;2022-07-29T08:48:49;98690.81;;;24.77;52.29
27144;BME280;14672;50.250;8.312;2022-07-29T08:51:20;98694.28;;;24.89;52.43
27144;BME280;14672;50.250;8.312;2022-07-29T08:53:48;98699.63;;;24.98;52.03
27144;BME280;14672;50.250;8.312;2022-07-29T08:56:17;98704.56;;;25.03;51.29
27144;BME280;14672;50.250;8.312;2022-07-29T08:58:44;98701.16;;;25.12;51.69
27144;BME280;14672;50.250;8.312;2022-07-29T09:01:16;98703.94;;;25.18;50.81
27144;BME280;14672;50.250;8.312;2022-07-29T09:03:44;98700.13;;;25.23;49.59
27144;BME280;14672;50.250;8.312;2022-07-29T09:06:18;98697.31;;;25.31;50.52
27144;BME280;14672;50.250;8.312;2022-07-29T09:08:45;98698.16;;;25.39;50.17
27144;BME280;14672;50.250;8.312;2022-07-29T09:11:12;98701.16;;;25.46;50.86
27144;BME280;14672;50.250;8.312;2022-07-29T09:13:39;98698.78;;;25.58;50.75
27144;BME280;14672;50.250;8.312;2022-07-29T09:16:05;98690.69;;;25.64;49.67
27144;BME280;14672;50.250;8.312;2022-07-29T09:18:42;98690.97;;;25.74;49.52
27144;BME280;14672;50.250;8.312;2022-07-29T09:21:13;98692.75;;;25.77;50.32
27144;BME280;14672;50.250;8.312;2022-07-29T09:24:16;98688.78;;;25.87;50.73
27144;BME280;14672;50.250;8.312;2022-07-29T09:26:45;98687.78;;;25.85;48.54
27144;BME280;14672;50.250;8.312;2022-07-29T09:29:20;98682.59;;;25.91;48.38
27144;BME280;14672;50.250;8.312;2022-07-29T09:31:49;98682.06;;;26.00;49.11
27144;BME280;14672;50.250;8.312;2022-07-29T09:34:37;98676.91;;;26.06;49.27
27144;BME280;14672;50.250;8.312;2022-07-29T09:37:03;98675.38;;;26.12;49.17
27144;BME280;14672;50.250;8.312;2022-07-29T09:39:39;98673.09;;;26.18;49.45
27144;BME280;14672;50.250;8.312;2022-07-29T09:42:12;98669.28;;;26.24;49.34
27144;BME280;14672;50.250;8.312;2022-07-29T09:44:49;98671.25;;;26.29;49.38
27144;BME280;14672;50.250;8.312;2022-07-29T09:47:17;98663.16;;;26.35;48.69
27144;BME280;14672;50.250;8.312;2022-07-29T09:49:56;98674.63;;;26.40;49.33
27144;BME280;14672;50.250;8.312;2022-07-29T09:52:25;98670.31;;;26.34;46.52
27144;BME280;14672;50.250;8.312;2022-07-29T09:54:51;98668.97;;;26.35;46.01
27144;BME280;14672;50.250;8.312;2022-07-29T09:57:27;98671.72;;;26.40;46.56
27144;BME280;14672;50.250;8.312;2022-07-29T10:00:06;98673.28;;;26.41;46.48
27144;BME280;14672;50.250;8.312;2022-07-29T10:02:36;98666.16;;;26.50;46.43
27144;BME280;14672;50.250;8.312;2022-07-29T10:05:06;98663.69;;;26.61;46.47
27144;BME280;14672;50.250;8.312;2022-07-29T10:07:53;98671.91;;;26.71;46.21
27144;BME280;14672;50.250;8.312;2022-07-29T10:10:35;98668.22;;;26.78;45.80
27144;BME280;14672;50.250;8.312;2022-07-29T10:13:05;98666.34;;;26.88;45.30
27144;BME280;14672;50.250;8.312;2022-07-29T10:15:34;98666.78;;;26.99;46.29
27144;BME280;14672;50.250;8.312;2022-07-29T10:18:04;98657.31;;;27.06;45.42
27144;BME280;14672;50.250;8.312;2022-07-29T10:20:34;98658.50;;;27.19;46.12
27144;BME280;14672;50.250;8.312;2022-07-29T10:23:00;98660.44;;;27.16;44.73
27144;BME280;14672;50.250;8.312;2022-07-29T10:25:26;98660.44;;;27.24;44.27
27144;BME280;14672;50.250;8.312;2022-07-29T10:27:53;98652.31;;;27.30;43.98
27144;BME280;14672;50.250;8.312;2022-07-29T10:30:23;98660.69;;;27.41;44.31
27144;BME280;14672;50.250;8.312;2022-07-29T10:42:21;98647.72;;;27.80;44.13
27144;BME280;14672;50.250;8.312;2022-07-29T10:44:50;98643.84;;;27.77;43.26
27144;BME280;14672;50.250;8.312;2022-07-29T10:47:35;98647.13;;;27.89;43.67
27144;BME280;14672;50.250;8.312;2022-07-29T10:50:05;98645.78;;;27.97;43.15
27144;BME280;14672;50.250;8.312;2022-07-29T10:55:48;98643.81;;;28.23;43.32
27144;BME280;14672;50.250;8.312;2022-07-29T10:58:21;98643.06;;;28.22;42.51
27144;BME280;14672;50.250;8.312;2022-07-29T11:00:51;98640.69;;;28.36;43.11
27144;BME280;14672;50.250;8.312;2022-07-29T11:03:43;98640.63;;;28.51;43.30
27144;BME280;14672;50.250;8.312;2022-07-29T11:06:13;98643.34;;;28.57;42.00
27144;BME280;14672;50.250;8.312;2022-07-29T11:08:39;98635.50;;;28.67;42.05
27144;BME280;14672;50.250;8.312;2022-07-29T11:13:52;98626.56;;;28.72;42.28
27144;BME280;14672;50.250;8.312;2022-07-29T11:16:21;98628.13;;;28.73;42.49
27144;BME280;14672;50.250;8.312;2022-07-29T11:21:46;98624.09;;;29.01;42.74
27144;BME280;14672;50.250;8.312;2022-07-29T11:24:20;98620.50;;;29.18;42.86
27144;BME280;14672;50.250;8.312;2022-07-29T11:27:17;98621.56;;;29.37;42.43
27144;BME280;14672;50.250;8.312;2022-07-29T11:29:57;98624.97;;;29.51;42.82
27144;BME280;14672;50.250;8.312;2022-07-29T11:32:37;98618.28;;;29.58;42.04
27144;BME280;14672;50.250;8.312;2022-07-29T11:35:22;98617.69;;;29.60;40.90
27144;BME280;14672;50.250;8.312;2022-07-29T11:38:26;98620.06;;;29.78;40.61
27144;BME280;14672;50.250;8.312;2022-07-29T11:41:24;98605.38;;;29.86;40.79
27144;BME280;14672;50.250;8.312;2022-07-29T11:43:55;98612.38;;;29.91;40.67
27144;BME280;14672;50.250;8.312;2022-07-29T11:46:50;98605.00;;;30.07;39.94
27144;BME280;14672;50.250;8.312;2022-07-29T11:49:27;98606.72;;;30.10;39.70
27144;BME280;14672;50.250;8.312;2022-07-29T11:51:55;98600.53;;;30.23;40.27
27144;BME280;14672;50.250;8.312;2022-07-29T11:54:30;98590.28;;;30.31;39.40
27144;BME280;14672;50.250;8.312;2022-07-29T11:56:58;98601.28;;;30.48;39.67
27144;BME280;14672;50.250;8.312;2022-07-29T11:59:25;98594.38;;;30.53;39.25
27144;BME280;14672;50.250;8.312;2022-07-29T12:01:58;98588.44;;;30.61;38.43
27144;BME280;14672;50.250;8.312;2022-07-29T12:04:25;98591.94;;;30.76;39.40
27144;BME280;14672;50.250;8.312;2022-07-29T12:06:55;98592.66;;;30.94;39.35
27144;BME280;14672;50.250;8.312;2022-07-29T12:09:23;98587.06;;;31.06;39.04
27144;BME280;14672;50.250;8.312;2022-07-29T12:11:59;98582.84;;;31.26;39.59
27144;BME280;14672;50.250;8.312;2022-07-29T12:14:29;98578.16;;;31.40;39.92
27144;BME280;14672;50.250;8.312;2022-07-29T12:16:57;98579.31;;;31.54;39.29
27144;BME280;14672;50.250;8.312;2022-07-29T12:19:23;98567.31;;;31.69;38.81
27144;BME280;14672;50.250;8.312;2022-07-29T12:21:54;98572.16;;;31.84;39.12
27144;BME280;14672;50.250;8.312;2022-07-29T12:24:21;98561.38;;;31.96;38.13
27144;BME280;14672;50.250;8.312;2022-07-29T12:26:55;98570.31;;;31.89;37.21
27144;BME280;14672;50.250;8.312;2022-07-29T12:29:22;98553.66;;;32.10;37.71
27144;BME280;14672;50.250;8.312;2022-07-29T12:31:53;98552.13;;;32.09;37.28
27144;BME280;14672;50.250;8.312;2022-07-29T12:34:23;98556.25;;;31.97;36.64
27144;BME280;14672;50.250;8.312;2022-07-29T12:36:49;98564.41;;;31.79;37.25
27144;BME280;14672;50.250;8.312;2022-07-29T12:39:16;98566.38;;;31.67;36.52
27144;BME280;14672;50.250;8.312;2022-07-29T12:41:43;98561.91;;;31.39;36.76
27144;BME280;14672;50.250;8.312;2022-07-29T12:44:10;98565.91;;;31.34;36.44
27144;BME280;14672;50.250;8.312;2022-07-29T12:46:39;98563.84;;;31.27;36.69
27144;BME280;14672;50.250;8.312;2022-07-29T12:49:05;98553.94;;;31.22;36.45
27144;BME280;14672;50.250;8.312;2022-07-29T12:51:39;98553.72;;;31.11;36.77
27144;BME280;14672;50.250;8.312;2022-07-29T12:54:14;98550.13;;;31.03;37.71
27144;BME280;14672;50.250;8.312;2022-07-29T12:56:43;98559.47;;;30.92;38.01
27144;BME280;14672;50.250;8.312;2022-07-29T12:59:22;98560.50;;;30.87;37.76
27144;BME280;14672;50.250;8.312;2022-07-29T13:01:52;98555.00;;;30.73;38.02
27144;BME280;14672;50.250;8.312;2022-07-29T13:04:30;98553.41;;;30.63;38.47
27144;BME280;14672;50.250;8.312;2022-07-29T13:07:07;98551.34;;;30.56;37.87
27144;BME280;14672;50.250;8.312;2022-07-29T13:09:41;98552.22;;;30.49;38.71
27144;BME280;14672;50.250;8.312;2022-07-29T13:12:10;98559.97;;;30.37;38.99
27144;BME280;14672;50.250;8.312;2022-07-29T13:14:40;98559.84;;;30.27;38.96
27144;BME280;14672;50.250;8.312;2022-07-29T13:17:14;98570.47;;;30.22;39.18
27144;BME280;14672;50.250;8.312;2022-07-29T13:20:04;98567.44;;;30.13;39.35
27144;BME280;14672;50.250;8.312;2022-07-29T13:22:30;98570.72;;;30.00;39.67
27144;BME280;14672;50.250;8.312;2022-07-29T13:25:01;98568.78;;;29.95;39.33
27144;BME280;14672;50.250;8.312;2022-07-29T13:27:30;98576.09;;;29.86;38.95
27144;BME280;14672;50.250;8.312;2022-07-29T13:29:59;98586.69;;;29.81;40.05
27144;BME280;14672;50.250;8.312;2022-07-29T13:32:28;98601.88;;;29.38;42.93
27144;BME280;14672;50.250;8.312;2022-07-29T13:34:56;98604.69;;;28.81;45.07
27144;BME280;14672;50.250;8.312;2022-07-29T13:37:23;98624.31;;;28.33;47.99
27144;BME280;14672;50.250;8.312;2022-07-29T13:39:50;98619.66;;;27.99;47.73
27144;BME280;14672;50.250;8.312;2022-07-29T13:42:15;98623.19;;;27.60;48.74
27144;BME280;14672;50.250;8.312;2022-07-29T13:44:41;98611.72;;;27.47;49.15
27144;BME280;14672;50.250;8.312;2022-07-29T13:47:08;98630.63;;;26.95;50.10